Time;durP1;ratioP1;P1;durP2;ratioP2;P2;SDS_P1;SDS_P2;PMS_P1;PMS_P2;Temp;Humidity;BMP_temperature;BMP_pressure;BME280_temperature;BME280_humidity;BME280_pressure;Samples;Min_cycle;Max_cycle;Signal;HPM_P1;HPM_P2
2023/03/22 00:01:09;;;;;;;;;;;;;;;10.58;76.28;97787.31;5063280;28;19924;-59
2023/03/22 00:03:36;;;;;;;;;;;;;;;10.58;76.53;97784.59;5069871;28;20366;-59
2023/03/22 00:06:06;;;;;;;;;;;;;;;10.54;76.59;97786.31;5067725;28;19924;-59
2023/03/22 00:08:34;;;;;;;;;;;;;;;10.40;76.84;97781.81;5063361;28;19939;-60
2023/03/22 00:11:02;;;;;;;;;;;;;;;10.27;77.25;97779.97;5070544;28;19928;-59
2023/03/22 00:13:30;;;;;;;;;;;;;;;10.08;78.10;97780.19;5065371;28;19924;-59
2023/03/22 00:15:58;;;;;;;;;;;;;;;10.02;78.44;97784.13;5070821;28;19932;-60
2023/03/22 00:18:26;;;;;;;;;;;;;;;9.89;78.63;97780.38;5068520;28;19924;-59
2023/03/22 00:20:55;;;;;;;;;;;;;;;9.85;79.15;97787.53;5065162;28;19932;-59
2023/03/22 00:23:24;;;;;;;;;;;;;;;9.79;79.30;97794.19;5070404;28;19924;-59
2023/03/22 00:25:52;;;;;;;;;;;;;;;9.82;79.22;97795.50;5066806;28;19932;-59
2023/03/22 00:28:20;;;;;;;;;;;;;;;10.03;78.54;97790.38;5069413;28;19932;-60
2023/03/22 00:30:51;;;;;;;;;;;;;;;9.98;78.22;97783.16;5073299;28;19925;-59
2023/03/22 00:33:19;;;;;;;;;;;;;;;10.01;78.41;97777.09;5064270;28;19935;-59
2023/03/22 00:35:51;;;;;;;;;;;;;;;9.97;78.19;97774.22;5065064;28;20261;-59
2023/03/22 00:38:18;;;;;;;;;;;;;;;9.96;78.13;97767.19;5070237;28;19936;-59
2023/03/22 00:40:51;;;;;;;;;;;;;;;9.93;78.14;97767.00;5066897;28;19928;-59
2023/03/22 00:43:19;;;;;;;;;;;;;;;9.93;77.95;97761.56;5064141;28;19932;-59
2023/03/22 00:45:47;;;;;;;;;;;;;;;9.87;78.08;97758.19;5065918;28;19982;-59
2023/03/22 00:48:14;;;;;;;;;;;;;;;9.74;78.63;97761.75;5067780;28;19925;-59
2023/03/22 00:50:42;;;;;;;;;;;;;;;9.79;78.54;97760.84;5084867;28;19939;-60
2023/03/22 00:53:10;;;;;;;;;;;;;;;9.81;78.43;97764.84;5066422;28;19931;-59
2023/03/22 00:55:38;;;;;;;;;;;;;;;9.71;78.22;97765.09;5061831;28;19991;-59
2023/03/22 00:58:08;;;;;;;;;;;;;;;9.59;78.89;97757.53;5081232;28;19925;-60
2023/03/22 01:00:36;;;;;;;;;;;;;;;9.53;78.92;97766.06;5091064;28;19924;-60
2023/03/22 01:03:04;;;;;;;;;;;;;;;9.54;79.16;97765.00;5068913;28;20065;-59
2023/03/22 01:05:32;;;;;;;;;;;;;;;9.60;78.60;97766.47;5073561;28;19928;-59
2023/03/22 01:08:07;;;;;;;;;;;;;;;9.59;78.53;97767.59;5066255;28;19925;-59
2023/03/22 01:10:35;;;;;;;;;;;;;;;9.60;78.49;97766.47;5071374;28;19925;-60
2023/03/22 01:13:03;;;;;;;;;;;;;;;9.60;78.29;97767.25;5070324;28;19925;-59
2023/03/22 01:15:34;;;;;;;;;;;;;;;9.57;78.32;97758.94;5072452;28;20281;-59
2023/03/22 01:18:03;;;;;;;;;;;;;;;9.56;78.33;97760.03;5071624;28;19931;-59
2023/03/22 01:20:31;;;;;;;;;;;;;;;9.47;78.82;97753.75;5067172;28;19940;-59
2023/03/22 01:22:59;;;;;;;;;;;;;;;9.53;78.42;97757.94;5071080;28;19936;-61
2023/03/22 01:25:28;;;;;;;;;;;;;;;9.48;78.26;97756.19;5068079;28;20385;-59
2023/03/22 01:27:56;;;;;;;;;;;;;;;9.39;78.72;97747.97;5067888;28;20344;-59
2023/03/22 01:30:25;;;;;;;;;;;;;;;9.41;79.00;97747.66;5068357;28;19928;-60
2023/03/22 01:32:54;;;;;;;;;;;;;;;9.42;78.68;97747.34;5067972;28;19932;-59
2023/03/22 01:35:22;;;;;;;;;;;;;;;9.44;78.74;97738.91;5084251;28;19925;-59
2023/03/22 01:37:52;;;;;;;;;;;;;;;9.33;78.89;97738.34;5070037;28;20015;-59
2023/03/22 01:40:20;;;;;;;;;;;;;;;9.32;79.09;97736.75;5091195;28;19924;-63
2023/03/22 01:42:48;;;;;;;;;;;;;;;9.25;79.46;97730.94;5070410;28;20374;-59
2023/03/22 01:45:34;;;;;;;;;;;;;;;9.21;79.57;97729.13;5069985;28;20528;-59
2023/03/22 01:48:05;;;;;;;;;;;;;;;9.22;79.71;97737.00;5067993;28;20267;-59
2023/03/22 01:50:37;;;;;;;;;;;;;;;9.17;80.10;97739.81;5082462;28;19968;-59
2023/03/22 01:53:06;;;;;;;;;;;;;;;9.17;79.91;97732.47;5073679;28;19924;-59
2023/03/22 01:55:36;;;;;;;;;;;;;;;9.19;79.97;97735.69;5069982;28;20302;-59
2023/03/22 01:58:14;;;;;;;;;;;;;;;9.09;80.31;97727.78;5061743;28;19943;-59
2023/03/22 02:00:48;;;;;;;;;;;;;;;8.97;81.16;97724.81;5069101;28;19932;-59
2023/03/22 02:03:27;;;;;;;;;;;;;;;9.03;81.06;97730.91;5066113;28;19932;-59
2023/03/22 02:05:55;;;;;;;;;;;;;;;9.13;80.56;97723.34;5082617;28;19940;-59
2023/03/22 02:08:24;;;;;;;;;;;;;;;9.16;80.15;97720.03;5072207;28;19936;-62
2023/03/22 02:11:00;;;;;;;;;;;;;;;9.13;80.26;97711.72;5070766;28;19979;-59
2023/03/22 02:13:38;;;;;;;;;;;;;;;9.13;80.28;97717.94;5085428;28;19978;-59
2023/03/22 02:16:21;;;;;;;;;;;;;;;9.15;80.13;97714.91;5083153;28;19924;-59
2023/03/22 02:18:59;;;;;;;;;;;;;;;9.16;80.07;97717.34;5082432;28;20345;-59
2023/03/22 02:21:33;;;;;;;;;;;;;;;9.16;80.14;97717.34;5067815;28;19931;-59
2023/03/22 02:24:22;;;;;;;;;;;;;;;9.15;80.18;97720.31;5067376;28;19928;-60
2023/03/22 02:27:09;;;;;;;;;;;;;;;9.14;79.97;97718.72;5063545;28;20456;-58
2023/03/22 02:29:40;;;;;;;;;;;;;;;9.13;80.06;97717.94;5065007;28;19989;-59
2023/03/22 02:32:23;;;;;;;;;;;;;;;9.21;79.34;97718.31;5070198;28;19968;-59
2023/03/22 02:35:12;;;;;;;;;;;;;;;9.14;79.94;97719.53;5081019;28;19929;-59
2023/03/22 02:37:50;;;;;;;;;;;;;;;9.25;78.94;97713.88;5066508;28;19978;-59
2023/03/22 02:40:20;;;;;;;;;;;;;;;9.16;79.56;97714.63;5073397;28;19932;-59
2023/03/22 02:42:50;;;;;;;;;;;;;;;9.13;79.88;97711.72;5074408;28;20015;-59
2023/03/22 02:45:20;;;;;;;;;;;;;;;9.17;79.88;97707.28;5075083;28;19947;-59
2023/03/22 02:47:52;;;;;;;;;;;;;;;9.21;79.79;97710.16;5063197;28;19924;-59
2023/03/22 02:50:22;;;;;;;;;;;;;;;9.21;79.34;97705.53;5064170;28;19925;-59
2023/03/22 02:52:50;;;;;;;;;;;;;;;9.23;79.29;97706.06;5060964;28;19946;-60
2023/03/22 02:55:20;;;;;;;;;;;;;;;9.02;79.84;97704.94;5086113;28;20469;-59
2023/03/22 02:57:50;;;;;;;;;;;;;;;8.95;79.84;97704.53;5067355;28;19932;-59
2023/03/22 03:00:18;;;;;;;;;;;;;;;8.95;80.21;97699.94;5067323;28;19970;-59
2023/03/22 03:02:48;;;;;;;;;;;;;;;9.03;79.69;97698.41;5069650;28;19931;-59
2023/03/22 03:05:17;;;;;;;;;;;;;;;8.92;79.86;97695.91;5071550;28;20274;-62
2023/03/22 03:07:47;;;;;;;;;;;;;;;8.82;80.10;97690.72;5085063;28;19978;-59
2023/03/22 03:10:15;;;;;;;;;;;;;;;8.82;79.78;97692.63;5061722;28;20327;-63
2023/03/22 03:12:45;;;;;;;;;;;;;;;8.83;79.43;97703.16;5070939;28;19924;-59
2023/03/22 03:15:13;;;;;;;;;;;;;;;8.82;79.51;97698.06;5066136;28;19928;-60
2023/03/22 03:17:47;;;;;;;;;;;;;;;8.81;79.33;97694.53;5079198;28;19924;-59
2023/03/22 03:20:17;;;;;;;;;;;;;;;8.82;79.29;97693.44;5064309;28;20373;-59
2023/03/22 03:22:48;;;;;;;;;;;;;;;8.73;79.37;97692.53;5071029;28;19939;-59
2023/03/22 03:25:18;;;;;;;;;;;;;;;8.63;79.93;97698.22;5066941;28;20408;-59
2023/03/22 03:27:48;;;;;;;;;;;;;;;8.57;80.12;97692.06;5067550;28;19928;-59
2023/03/22 03:30:16;;;;;;;;;;;;;;;8.55;80.26;97698.91;5068944;28;19932;-59
2023/03/22 03:32:45;;;;;;;;;;;;;;;8.51;80.14;97700.59;5067628;28;19931;-59
2023/03/22 03:35:21;;;;;;;;;;;;;;;8.46;80.32;97704.22;5067429;28;19947;-59
2023/03/22 03:37:49;;;;;;;;;;;;;;;8.45;80.73;97699.91;5072548;28;20015;-59
2023/03/22 03:40:17;;;;;;;;;;;;;;;8.45;80.75;97699.91;5068305;28;19932;-60
2023/03/22 03:42:46;;;;;;;;;;;;;;;8.46;80.79;97703.41;5066336;28;19939;-59
2023/03/22 03:45:15;;;;;;;;;;;;;;;8.43;80.74;97709.47;5068526;28;20382;-59
2023/03/22 03:47:43;;;;;;;;;;;;;;;8.39;81.07;97707.34;5064296;28;19924;-59
2023/03/22 03:50:11;;;;;;;;;;;;;;;8.42;80.72;97714.06;5067808;28;20378;-59
2023/03/22 03:52:39;;;;;;;;;;;;;;;8.35;80.96;97695.47;5060730;28;19959;-59
2023/03/22 03:55:07;;;;;;;;;;;;;;;8.42;80.74;97705.94;5068907;28;19924;-59
2023/03/22 03:57:37;;;;;;;;;;;;;;;8.33;81.10;97705.81;5079141;28;20027;-59
2023/03/22 04:00:05;;;;;;;;;;;;;;;8.29;81.31;97704.81;5085773;28;19928;-59
2023/03/22 04:02:53;;;;;;;;;;;;;;;8.25;81.15;97703.78;5068034;28;19931;-58
2023/03/22 04:05:40;;;;;;;;;;;;;;;8.24;81.00;97709.50;5067075;28;19925;-59
2023/03/22 04:08:08;;;;;;;;;;;;;;;8.26;80.54;97710.84;5069479;28;19951;-59
2023/03/22 04:10:36;;;;;;;;;;;;;;;8.27;80.68;97709.72;5087689;28;19929;-60
2023/03/22 04:13:04;;;;;;;;;;;;;;;8.20;80.65;97706.59;5065932;28;19925;-59
2023/03/22 04:15:32;;;;;;;;;;;;;;;8.21;80.36;97715.53;5069609;28;19924;-59
2023/03/22 04:18:05;;;;;;;;;;;;;;;8.16;80.31;97711.03;5077550;28;20297;-59
2023/03/22 04:20:33;;;;;;;;;;;;;;;8.08;80.67;97714.41;5080299;28;20282;-60
2023/03/22 04:23:03;;;;;;;;;;;;;;;8.17;80.14;97712.63;5069676;28;19925;-60
2023/03/22 04:25:32;;;;;;;;;;;;;;;8.10;80.12;97714.94;5066481;28;19931;-60
2023/03/22 04:28:08;;;;;;;;;;;;;;;8.10;80.19;97717.66;5068177;28;19928;-60
2023/03/22 04:30:37;;;;;;;;;;;;;;;8.06;80.46;97719.34;5063971;28;19932;-60
2023/03/22 04:33:25;;;;;;;;;;;;;;;8.14;79.82;97719.44;5066781;28;19933;-59
2023/03/22 04:36:16;;;;;;;;;;;;;;;8.15;79.48;97717.56;5065003;28;20410;-59
2023/03/22 04:39:04;;;;;;;;;;;;;;;8.18;79.33;97716.94;5065176;28;19974;-59
2023/03/22 04:41:33;;;;;;;;;;;;;;;8.19;79.43;97715.03;5066274;28;19958;-60
2023/03/22 04:44:02;;;;;;;;;;;;;;;8.18;79.12;97716.13;5066585;28;20305;-59
2023/03/22 04:46:32;;;;;;;;;;;;;;;8.13;79.46;97717.03;5067995;28;20417;-60
2023/03/22 04:49:06;;;;;;;;;;;;;;;8.02;79.66;97715.63;5064733;28;19924;-59
2023/03/22 04:51:38;;;;;;;;;;;;;;;7.81;80.49;97709.78;5070087;28;19924;-60
2023/03/22 04:54:27;;;;;;;;;;;;;;;8.02;79.51;97715.63;5067998;28;20378;-59
2023/03/22 04:56:55;;;;;;;;;;;;;;;7.91;80.01;97712.31;5064390;28;19939;-59
2023/03/22 04:59:27;;;;;;;;;;;;;;;7.91;79.86;97708.78;5070325;28;19974;-60
2023/03/22 05:01:57;;;;;;;;;;;;;;;7.90;79.72;97718.03;5083776;28;19960;-60
2023/03/22 05:04:28;;;;;;;;;;;;;;;7.78;80.01;97722.00;5070789;28;20043;-60
2023/03/22 05:07:02;;;;;;;;;;;;;;;7.81;79.91;97707.88;5066424;28;19932;-59
2023/03/22 05:09:41;;;;;;;;;;;;;;;7.84;79.94;97714.59;5085386;28;19954;-59
2023/03/22 05:12:09;;;;;;;;;;;;;;;7.80;79.70;97713.59;5065328;28;20359;-59
2023/03/22 05:14:44;;;;;;;;;;;;;;;7.73;79.97;97721.28;5071551;28;19928;-59
2023/03/22 05:17:15;;;;;;;;;;;;;;;7.75;80.38;97705.56;5063895;28;20021;-59
2023/03/22 05:19:46;;;;;;;;;;;;;;;7.61;80.95;97706.31;5087975;28;19924;-59
2023/03/22 05:22:14;;;;;;;;;;;;;;;7.76;80.01;97707.16;5071402;28;20515;-59
2023/03/22 05:24:48;;;;;;;;;;;;;;;7.65;80.44;97705.75;5085826;28;20448;-60
2023/03/22 05:27:30;;;;;;;;;;;;;;;7.54;80.65;97705.91;5084704;28;19932;-60
2023/03/22 05:30:28;;;;;;;;;;;;;;;7.73;80.07;97699.66;5085536;28;19925;-59
2023/03/22 05:33:20;;;;;;;;;;;;;;;7.80;79.68;97698.16;5068773;28;19970;-60
2023/03/22 05:35:52;;;;;;;;;;;;;;;7.53;80.60;97704.31;5068990;28;20021;-59
2023/03/22 05:38:21;;;;;;;;;;;;;;;7.48;81.11;97712.50;5086360;28;19990;-57
2023/03/22 05:40:52;;;;;;;;;;;;;;;7.61;80.63;97708.22;5068582;28;19925;-57
2023/03/22 05:43:20;;;;;;;;;;;;;;;7.72;79.67;97696.13;5072154;28;19924;-58
2023/03/22 05:45:49;;;;;;;;;;;;;;;7.64;79.76;97696.03;5069652;28;19974;-58
2023/03/22 05:48:53;;;;;;;;;;;;;;;7.80;79.25;97698.16;5062305;28;20477;-58
2023/03/22 05:51:24;;;;;;;;;;;;;;;7.88;79.01;97697.50;5069372;28;19932;-57
2023/03/22 05:53:53;;;;;;;;;;;;;;;7.96;78.36;97695.19;5069941;28;19932;-57
2023/03/22 05:56:25;;;;;;;;;;;;;;;7.93;78.08;97690.34;5087218;28;20003;-58
2023/03/22 05:59:01;;;;;;;;;;;;;;;7.95;78.39;97693.59;5072022;28;19931;-58
2023/03/22 06:01:32;;;;;;;;;;;;;;;8.04;78.25;97687.19;5084738;28;19928;-57
2023/03/22 06:04:11;;;;;;;;;;;;;;;8.19;77.16;97694.19;5071885;28;19964;-58
2023/03/22 06:06:53;;;;;;;;;;;;;;;8.13;77.35;97695.38;5065844;28;19929;-57
2023/03/22 06:09:40;;;;;;;;;;;;;;;8.17;77.36;97693.69;5067004;28;19931;-57
2023/03/22 06:12:13;;;;;;;;;;;;;;;8.12;77.27;97686.47;5055185;28;20339;-58
2023/03/22 06:14:43;;;;;;;;;;;;;;;8.24;77.00;97685.16;5070433;28;20379;-57
2023/03/22 06:17:17;;;;;;;;;;;;;;;8.21;77.14;97686.59;5064014;28;19978;-58
2023/03/22 06:19:47;;;;;;;;;;;;;;;8.29;77.08;97683.16;5076712;28;19928;-58
2023/03/22 06:22:17;;;;;;;;;;;;;;;8.17;77.05;97688.28;5071062;28;20047;-57
2023/03/22 06:24:46;;;;;;;;;;;;;;;8.13;77.19;97687.25;5063120;28;20385;-57
2023/03/22 06:27:20;;;;;;;;;;;;;;;7.96;78.10;97687.06;5090863;28;19932;-57
2023/03/22 06:29:53;;;;;;;;;;;;;;;7.86;78.91;97691.56;5078014;28;20007;-58
2023/03/22 06:32:25;;;;;;;;;;;;;;;7.90;79.05;97685.56;5070629;28;19931;-57
2023/03/22 06:34:55;;;;;;;;;;;;;;;8.16;77.98;97683.16;5069892;28;19944;-58
2023/03/22 06:37:25;;;;;;;;;;;;;;;8.29;77.75;97685.84;5071367;28;20332;-57
2023/03/22 06:39:54;;;;;;;;;;;;;;;8.47;76.89;97686.06;5091129;28;19932;-67
2023/03/22 06:42:25;;;;;;;;;;;;;;;8.61;76.56;97679.53;5091672;28;20000;-61
2023/03/22 06:45:03;;;;;;;;;;;;;;;8.71;76.06;97678.50;5090255;28;19965;-57
2023/03/22 06:47:34;;;;;;;;;;;;;;;8.78;75.96;97684.31;5081192;28;19967;-58
2023/03/22 06:50:20;;;;;;;;;;;;;;;8.95;75.21;97674.72;5067213;28;20035;-57
2023/03/22 06:53:16;;;;;;;;;;;;;;;9.07;74.74;97678.50;5067517;28;20019;-58
2023/03/22 06:55:44;;;;;;;;;;;;;;;9.19;74.37;97678.75;5079137;28;19974;-57
2023/03/22 06:58:17;;;;;;;;;;;;;;;9.25;74.29;97676.72;5074469;28;19932;-57
2023/03/22 07:00:45;;;;;;;;;;;;;;;9.34;74.12;97680.31;5061906;28;20374;-57
2023/03/22 07:03:15;;;;;;;;;;;;;;;9.44;73.70;97682.78;5057818;28;19925;-58
2023/03/22 07:05:47;;;;;;;;;;;;;;;9.35;74.15;97686.53;5070713;28;20496;-58
2023/03/22 07:08:16;;;;;;;;;;;;;;;9.54;73.58;97673.59;5086779;28;20340;-56
2023/03/22 07:10:49;;;;;;;;;;;;;;;9.65;73.28;97674.13;5069655;28;19978;-57
2023/03/22 07:13:19;;;;;;;;;;;;;;;9.84;72.57;97682.03;5076638;28;19932;-57
2023/03/22 07:15:56;;;;;;;;;;;;;;;9.92;72.42;97689.41;5069725;28;19933;-57
2023/03/22 07:18:33;;;;;;;;;;;;;;;10.08;72.08;97692.53;5086538;28;19932;-57
2023/03/22 07:21:01;;;;;;;;;;;;;;;10.11;70.89;97691.88;5070064;28;19973;-58
2023/03/22 07:23:31;;;;;;;;;;;;;;;10.27;70.65;97686.88;5069303;28;19928;-57
2023/03/22 07:26:05;;;;;;;;;;;;;;;10.51;69.76;97691.91;5088908;28;19925;-57
2023/03/22 07:28:36;;;;;;;;;;;;;;;10.70;68.27;97693.19;5062917;28;19924;-57
2023/03/22 07:31:06;;;;;;;;;;;;;;;10.79;67.54;97690.50;5078750;28;20008;-57
2023/03/22 07:33:54;;;;;;;;;;;;;;;10.95;67.01;97694.34;5055196;28;19925;-60
2023/03/22 07:36:24;;;;;;;;;;;;;;;11.11;66.76;97689.25;5069599;28;19924;-60
2023/03/22 07:38:55;;;;;;;;;;;;;;;11.22;66.41;97692.44;5077188;28;20343;-56
2023/03/22 07:41:32;;;;;;;;;;;;;;;11.42;65.24;97686.34;5072438;28;20424;-60
2023/03/22 07:44:18;;;;;;;;;;;;;;;11.49;65.23;97688.56;5060805;28;20336;-57
2023/03/22 07:46:57;;;;;;;;;;;;;;;11.65;64.84;97686.16;5070701;28;19968;-58
2023/03/22 07:49:36;;;;;;;;;;;;;;;11.72;64.40;97689.19;5070271;28;20373;-57
2023/03/22 07:52:15;;;;;;;;;;;;;;;11.83;64.28;97690.47;5063367;28;19924;-57
2023/03/22 07:54:44;;;;;;;;;;;;;;;11.90;63.86;97690.75;5064211;28;19942;-57
2023/03/22 07:57:12;;;;;;;;;;;;;;;11.98;63.34;97683.69;5065846;28;19932;-58
2023/03/22 07:59:56;;;;;;;;;;;;;;;12.19;63.09;97681.84;5064733;28;19925;-63
2023/03/22 08:02:29;;;;;;;;;;;;;;;12.23;62.18;97680.06;5062852;28;20426;-57
2023/03/22 08:05:00;;;;;;;;;;;;;;;12.32;61.05;97682.75;5085903;28;19970;-57
2023/03/22 08:07:35;;;;;;;;;;;;;;;12.45;61.35;97683.63;5063818;28;19934;-56
2023/03/22 08:10:05;;;;;;;;;;;;;;;12.68;60.16;97676.78;5068243;28;19960;-57
2023/03/22 08:12:35;;;;;;;;;;;;;;;12.83;59.23;97684.34;5063751;28;20304;-57
2023/03/22 08:15:11;;;;;;;;;;;;;;;12.84;59.00;97683.25;5064836;28;20013;-56
2023/03/22 08:17:45;;;;;;;;;;;;;;;13.14;58.76;97668.75;5061867;28;19963;-58
2023/03/22 08:20:20;;;;;;;;;;;;;;;13.30;57.71;97673.28;5085145;28;19992;-57
2023/03/22 08:22:53;;;;;;;;;;;;;;;13.38;57.29;97670.81;5071045;28;19939;-57
2023/03/22 08:25:29;;;;;;;;;;;;;;;13.38;57.28;97679.00;5067574;28;19943;-58
2023/03/22 08:28:06;;;;;;;;;;;;;;;13.50;57.04;97674.38;5084506;28;19945;-58
2023/03/22 08:30:34;;;;;;;;;;;;;;;13.78;56.92;97685.50;5067891;28;19950;-57
2023/03/22 08:33:03;;;;;;;;;;;;;;;13.83;54.55;97676.28;5068356;28;19939;-57
2023/03/22 08:35:32;;;;;;;;;;;;;;;14.02;53.83;97673.84;5057213;28;19966;-58
2023/03/22 08:38:00;;;;;;;;;;;;;;;14.14;52.78;97667.59;5082978;28;20009;-57
2023/03/22 08:40:38;;;;;;;;;;;;;;;14.19;52.85;97672.03;5063798;28;20389;-57
2023/03/22 08:43:06;;;;;;;;;;;;;;;14.33;53.55;97673.31;5067659;28;19932;-58
2023/03/22 08:45:36;;;;;;;;;;;;;;;14.40;52.58;97673.53;5082925;28;20346;-58
2023/03/22 08:48:10;;;;;;;;;;;;;;;14.51;52.58;97673.88;5084543;28;20481;-58
2023/03/22 08:50:57;;;;;;;;;;;;;;;14.65;51.55;97668.88;5058773;28;19940;-61
2023/03/22 08:53:43;;;;;;;;;;;;;;;14.64;51.21;97671.94;5080096;28;19958;-57
2023/03/22 08:56:51;;;;;;;;;;;;;;;14.73;50.53;97663.63;5005369;28;19956;-64
2023/03/22 08:59:52;;;;;;;;;;;;;;;14.87;50.54;97664.84;4993620;28;20416;-58
2023/03/22 09:02:47;;;;;;;;;;;;;;;15.22;50.69;97658.00;5061380;28;19955;-58
2023/03/22 09:05:15;;;;;;;;;;;;;;;15.22;49.68;97667.00;5067755;28;20562;-60
2023/03/22 09:07:44;;;;;;;;;;;;;;;15.22;48.85;97668.97;5060839;28;19962;-57
2023/03/22 09:10:24;;;;;;;;;;;;;;;15.34;48.01;97666.16;5085135;28;20026;-57
2023/03/22 09:12:53;;;;;;;;;;;;;;;15.33;49.02;97659.91;5084670;28;19939;-57
2023/03/22 09:15:22;;;;;;;;;;;;;;;15.35;48.30;97652.16;5065165;28;19935;-58
2023/03/22 09:18:04;;;;;;;;;;;;;;;15.48;48.43;97660.31;5068245;28;19966;-57
2023/03/22 09:20:33;;;;;;;;;;;;;;;15.28;48.61;97654.66;5082587;28;19982;-67
2023/03/22 09:23:02;;;;;;;;;;;;;;;15.24;47.45;97655.75;5062673;28;19971;-57
2023/03/22 09:25:29;;;;;;;;;;;;;;;15.35;46.65;97654.88;5068409;28;20423;-57
2023/03/22 09:27:59;;;;;;;;;;;;;;;15.17;45.85;97657.09;5088283;28;19943;-57
2023/03/22 09:30:27;;;;;;;;;;;;;;;15.32;46.12;97649.31;5061493;28;19986;-57
2023/03/22 09:32:55;;;;;;;;;;;;;;;15.46;45.33;97649.72;5087075;28;19938;-56
2023/03/22 09:35:23;;;;;;;;;;;;;;;15.58;45.51;97651.59;5071928;28;19959;-57
2023/03/22 09:38:03;;;;;;;;;;;;;;;15.34;45.66;97653.31;5071477;28;19955;-60
2023/03/22 09:40:33;;;;;;;;;;;;;;;15.53;45.33;97652.63;5071872;28;19974;-57
2023/03/22 09:43:04;;;;;;;;;;;;;;;15.94;45.04;97654.16;5066892;28;19942;-57
2023/03/22 09:45:36;;;;;;;;;;;;;;;16.02;44.89;97654.31;5071805;28;20422;-59
2023/03/22 09:48:05;;;;;;;;;;;;;;;16.15;44.85;97645.66;5069604;28;19997;-56
2023/03/22 09:50:33;;;;;;;;;;;;;;;16.15;44.12;97645.66;5072192;28;20026;-57
2023/03/22 09:53:01;;;;;;;;;;;;;;;16.39;44.77;97649.34;5070483;28;19954;-57
2023/03/22 09:55:31;;;;;;;;;;;;;;;16.29;44.54;97650.69;5067987;28;20403;-57
2023/03/22 09:58:05;;;;;;;;;;;;;;;16.11;44.90;97641.25;5070735;28;19958;-60
2023/03/22 10:00:37;;;;;;;;;;;;;;;15.95;45.56;97630.28;5070150;28;19942;-57
2023/03/22 10:03:07;;;;;;;;;;;;;;;16.06;45.66;97636.81;5072412;28;19939;-56
2023/03/22 10:05:36;;;;;;;;;;;;;;;16.02;45.36;97624.19;5066839;28;19988;-58
2023/03/22 10:08:27;;;;;;;;;;;;;;;16.33;45.18;97629.63;5078757;28;20402;-57
2023/03/22 10:10:56;;;;;;;;;;;;;;;16.57;43.65;97625.09;5040441;28;19943;-57
2023/03/22 10:13:27;;;;;;;;;;;;;;;16.61;43.68;97624.00;5071599;28;19939;-58
2023/03/22 10:15:55;;;;;;;;;;;;;;;16.61;43.17;97624.00;5067455;28;20285;-58
2023/03/22 10:18:24;;;;;;;;;;;;;;;16.59;43.03;97620.06;5072344;28;20365;-59
2023/03/22 10:20:54;;;;;;;;;;;;;;;16.47;42.74;97618.22;5067711;28;20383;-57
2023/03/22 10:23:23;;;;;;;;;;;;;;;16.68;42.81;97613.22;5072011;28;19946;-57
2023/03/22 10:25:51;;;;;;;;;;;;;;;16.86;42.27;97618.31;5070118;28;19946;-57
2023/03/22 10:28:20;;;;;;;;;;;;;;;16.66;42.53;97614.72;5067774;28;19959;-57
2023/03/22 10:30:52;;;;;;;;;;;;;;;16.77;43.04;97600.09;5067954;28;20403;-58
2023/03/22 10:33:22;;;;;;;;;;;;;;;16.94;41.88;97603.59;5071869;28;19939;-58
2023/03/22 10:35:50;;;;;;;;;;;;;;;16.93;42.40;97610.22;5070450;28;20392;-57
2023/03/22 10:38:19;;;;;;;;;;;;;;;17.05;41.55;97607.38;5065875;28;19954;-58
2023/03/22 10:40:46;;;;;;;;;;;;;;;17.08;41.10;97603.09;5066448;28;19932;-58
2023/03/22 10:43:17;;;;;;;;;;;;;;;17.20;40.74;97594.69;5069473;28;19939;-58
2023/03/22 10:45:45;;;;;;;;;;;;;;;17.20;41.24;97605.69;5062370;28;19929;-57
2023/03/22 10:48:14;;;;;;;;;;;;;;;16.90;40.84;97597.25;5063094;28;19924;-58
2023/03/22 10:50:45;;;;;;;;;;;;;;;16.98;41.64;97601.72;5071430;28;19924;-59
2023/03/22 10:53:15;;;;;;;;;;;;;;;16.99;41.77;97584.91;5064037;28;19924;-60
2023/03/22 10:55:44;;;;;;;;;;;;;;;16.91;41.72;97580.41;5062879;28;19924;-57
2023/03/22 10:58:13;;;;;;;;;;;;;;;17.07;41.68;97582.28;5066212;28;19959;-57
2023/03/22 11:00:43;;;;;;;;;;;;;;;17.06;42.27;97591.69;5065032;28;20576;-58
2023/03/22 11:03:17;;;;;;;;;;;;;;;16.69;42.58;97590.13;5071092;28;20015;-57
2023/03/22 11:05:45;;;;;;;;;;;;;;;16.74;42.96;97578.88;5068195;28;19964;-59
2023/03/22 11:08:14;;;;;;;;;;;;;;;16.75;42.08;97590.66;5078929;28;19931;-57
2023/03/22 11:10:42;;;;;;;;;;;;;;;16.92;41.66;97573.75;5067288;28;20386;-57
2023/03/22 11:13:11;;;;;;;;;;;;;;;16.87;40.62;97573.25;5069063;28;20296;-57
2023/03/22 11:15:39;;;;;;;;;;;;;;;16.95;40.81;97566.78;5068073;28;19932;-58
2023/03/22 11:18:10;;;;;;;;;;;;;;;17.02;40.48;97573.19;5064673;28;19924;-56
2023/03/22 11:20:40;;;;;;;;;;;;;;;17.28;40.28;97575.25;5068049;28;19935;-56
2023/03/22 11:23:11;;;;;;;;;;;;;;;17.27;38.88;97573.69;5067335;28;19967;-56
2023/03/22 11:25:44;;;;;;;;;;;;;;;17.09;39.33;97578.00;5068903;28;20488;-57
2023/03/22 11:28:16;;;;;;;;;;;;;;;17.01;39.44;97576.31;5066421;28;20398;-58
2023/03/22 11:30:57;;;;;;;;;;;;;;;17.22;38.87;97576.72;5067595;28;19924;-57
2023/03/22 11:33:25;;;;;;;;;;;;;;;17.38;39.02;97567.59;5064540;28;19925;-58
2023/03/22 11:35:55;;;;;;;;;;;;;;;17.43;39.20;97570.03;5066761;28;19932;-57
2023/03/22 11:38:29;;;;;;;;;;;;;;;17.50;38.81;97567.41;5066664;28;19925;-58
2023/03/22 11:40:58;;;;;;;;;;;;;;;17.59;38.80;97556.22;5065797;28;19943;-58
2023/03/22 11:43:28;;;;;;;;;;;;;;;17.66;39.22;97557.13;5069061;28;19928;-56
2023/03/22 11:45:56;;;;;;;;;;;;;;;17.52;39.18;97543.13;5064128;28;19924;-57
2023/03/22 11:48:25;;;;;;;;;;;;;;;17.65;39.61;97552.78;5065377;28;19924;-58
2023/03/22 11:50:55;;;;;;;;;;;;;;;17.66;37.95;97551.63;5058730;28;19956;-57
2023/03/22 11:53:25;;;;;;;;;;;;;;;17.79;38.03;97547.56;5066361;28;19924;-60
2023/03/22 11:55:53;;;;;;;;;;;;;;;17.78;37.15;97548.69;5062025;28;19933;-58
2023/03/22 11:58:26;;;;;;;;;;;;;;;17.78;36.77;97551.44;5060819;28;19924;-56
2023/03/22 12:00:55;;;;;;;;;;;;;;;17.57;37.21;97542.81;5067425;28;20072;-57
2023/03/22 12:03:24;;;;;;;;;;;;;;;17.70;37.50;97546.19;5068807;28;19936;-60
2023/03/22 12:05:52;;;;;;;;;;;;;;;17.73;36.76;97546.25;5065993;28;19936;-56
2023/03/22 12:08:23;;;;;;;;;;;;;;;17.64;37.46;97531.19;5079672;28;19924;-56
2023/03/22 12:10:54;;;;;;;;;;;;;;;17.42;37.92;97538.25;5058168;28;20003;-57
2023/03/22 12:13:22;;;;;;;;;;;;;;;17.21;38.66;97531.22;5067157;28;19924;-56
2023/03/22 12:15:52;;;;;;;;;;;;;;;17.07;39.03;97530.94;5067052;28;19925;-56
2023/03/22 12:18:22;;;;;;;;;;;;;;;17.28;38.97;97519.56;5057007;28;19925;-58
2023/03/22 12:20:52;;;;;;;;;;;;;;;17.43;38.57;97523.38;5066176;28;19932;-56
2023/03/22 12:23:20;;;;;;;;;;;;;;;17.21;38.18;97533.16;5063861;28;19939;-58
2023/03/22 12:25:50;;;;;;;;;;;;;;;17.25;37.85;97529.31;5061923;28;19939;-57
2023/03/22 12:28:18;;;;;;;;;;;;;;;17.17;37.70;97524.06;5063177;28;19947;-56
2023/03/22 12:30:46;;;;;;;;;;;;;;;17.11;38.03;97523.56;5079913;28;20374;-57
2023/03/22 12:33:18;;;;;;;;;;;;;;;17.05;38.58;97511.31;5064463;28;19925;-57
2023/03/22 12:35:46;;;;;;;;;;;;;;;17.14;38.71;97511.06;5064198;28;20025;-56
2023/03/22 12:38:18;;;;;;;;;;;;;;;17.20;39.08;97515.88;5058934;28;19962;-59
2023/03/22 12:40:46;;;;;;;;;;;;;;;17.34;39.24;97514.56;5062555;28;20321;-57
2023/03/22 12:43:17;;;;;;;;;;;;;;;17.47;37.52;97507.72;5061838;28;20287;-57
2023/03/22 12:45:46;;;;;;;;;;;;;;;17.68;38.14;97499.84;5066596;28;20301;-58
2023/03/22 12:48:15;;;;;;;;;;;;;;;17.97;37.20;97503.09;5061718;28;19935;-59
2023/03/22 12:50:44;;;;;;;;;;;;;;;17.95;35.79;97494.41;5079027;28;20397;-57
2023/03/22 12:53:13;;;;;;;;;;;;;;;17.99;35.79;97489.75;5066571;28;19925;-57
2023/03/22 12:55:41;;;;;;;;;;;;;;;18.09;35.82;97491.88;5060031;28;19932;-58
2023/03/22 12:58:10;;;;;;;;;;;;;;;17.92;35.26;97489.66;5058027;28;20298;-57
2023/03/22 13:00:40;;;;;;;;;;;;;;;17.92;35.97;97497.91;5066181;28;19925;-56
2023/03/22 13:03:17;;;;;;;;;;;;;;;17.71;35.44;97498.31;5063899;28;19931;-57
2023/03/22 13:05:46;;;;;;;;;;;;;;;17.59;36.39;97496.56;5067812;28;19932;-57
2023/03/22 13:08:18;;;;;;;;;;;;;;;17.56;36.63;97494.53;5066813;28;20031;-57
2023/03/22 13:11:09;;;;;;;;;;;;;;;17.60;36.39;97487.16;5083945;28;19925;-57
2023/03/22 13:13:43;;;;;;;;;;;;;;;17.64;35.84;97477.03;5068831;28;19931;-56
2023/03/22 13:16:18;;;;;;;;;;;;;;;17.85;36.22;97476.59;5087222;28;19924;-57
2023/03/22 13:19:03;;;;;;;;;;;;;;;17.90;36.75;97479.03;5083640;28;19933;-57